createdAt,value
2024-05-09T00:01:37.405Z,101432.25
2024-05-09T00:04:07.724Z,101436.13
2024-05-09T00:06:37.986Z,101438.00
2024-05-09T00:09:08.474Z,101438.25
2024-05-09T00:11:38.781Z,101438.00
2024-05-09T00:14:08.978Z,101438.94
2024-05-09T00:16:39.346Z,101433.66
2024-05-09T00:19:09.532Z,101435.69
2024-05-09T00:21:43.507Z,101434.75
2024-05-09T00:24:13.909Z,101435.09
2024-05-09T00:26:43.956Z,101431.69
2024-05-09T00:29:14.316Z,101437.69
2024-05-09T00:31:44.796Z,101430.41
2024-05-09T00:34:15.435Z,101430.16
2024-05-09T00:36:45.622Z,101434.84
2024-05-09T00:39:15.953Z,101440.25
2024-05-09T00:41:46.214Z,101429.69
2024-05-09T00:44:16.495Z,101425.31
2024-05-09T00:46:46.378Z,101432.38
2024-05-09T00:49:17.031Z,101427.81
2024-05-09T00:51:47.185Z,101428.88
2024-05-09T00:54:20.100Z,101430.41
2024-05-09T00:56:52.431Z,101433.00
2024-05-09T00:59:23.195Z,101440.50
2024-05-09T01:01:53.780Z,101433.09
2024-05-09T01:04:24.569Z,101422.72
2024-05-09T01:06:55.088Z,101429.78
2024-05-09T01:09:25.242Z,101426.53
2024-05-09T01:11:55.705Z,101423.22
2024-05-09T01:14:25.935Z,101426.63
2024-05-09T01:16:56.055Z,101419.22
2024-05-09T01:19:32.421Z,101421.31
2024-05-09T01:22:04.297Z,101423.91
2024-05-09T01:24:34.007Z,101422.38
2024-05-09T01:27:04.192Z,101422.47
2024-05-09T01:29:34.023Z,101428.81
2024-05-09T01:32:04.990Z,101431.84
2024-05-09T01:34:35.185Z,101427.31
2024-05-09T01:37:05.264Z,101428.00
2024-05-09T01:39:35.418Z,101435.78
2024-05-09T01:42:05.665Z,101434.59
2024-05-09T01:44:35.772Z,101442.09
2024-05-09T01:47:05.971Z,101442.69
2024-05-09T01:49:39.962Z,101450.19
2024-05-09T01:52:09.887Z,101440.09
2024-05-09T01:54:39.952Z,101445.69
2024-05-09T01:57:10.104Z,101439.25
2024-05-09T01:59:40.162Z,101438.44
2024-05-09T02:02:10.464Z,101440.75
2024-05-09T02:04:40.925Z,101439.25
2024-05-09T02:07:11.334Z,101441.38
2024-05-09T02:09:41.499Z,101433.13
2024-05-09T02:12:12.030Z,101434.41
2024-05-09T02:14:42.598Z,101437.91
2024-05-09T02:17:13.260Z,101429.44
2024-05-09T02:19:44.051Z,101439.44
2024-05-09T02:22:14.305Z,101436.13
2024-05-09T02:24:44.357Z,101439.06
2024-05-09T02:27:14.637Z,101439.06
2024-05-09T02:29:45.920Z,101437.78
2024-05-09T02:32:16.130Z,101438.97
2024-05-09T02:34:46.433Z,101442.50
2024-05-09T02:37:16.991Z,101436.88
2024-05-09T02:39:44.480Z,101442.28
2024-05-09T02:42:14.582Z,101439.44
2024-05-09T02:44:42.007Z,101430.72
2024-05-09T02:47:12.339Z,101444.47
2024-05-09T02:49:40.296Z,101434.50
2024-05-09T02:52:10.412Z,101430.84
2024-05-09T02:54:37.876Z,101433.31
2024-05-09T02:57:08.206Z,101434.97
2024-05-09T02:59:35.698Z,101438.06
2024-05-09T03:02:05.688Z,101433.94
2024-05-09T03:04:33.521Z,101434.31
2024-05-09T03:07:03.687Z,101433.25
2024-05-09T03:09:31.147Z,101435.72
2024-05-09T03:12:01.294Z,101437.16
2024-05-09T03:14:29.197Z,101440.91
2024-05-09T03:16:59.434Z,101437.38
2024-05-09T03:19:26.954Z,101436.53
2024-05-09T03:21:57.071Z,101425.72
2024-05-09T03:24:24.698Z,101428.06
2024-05-09T03:26:54.860Z,101425.16
2024-05-09T03:29:22.562Z,101417.03
2024-05-09T03:31:52.956Z,101421.97
2024-05-09T03:34:20.420Z,101429.84
2024-05-09T03:36:50.562Z,101431.28
2024-05-09T03:39:20.744Z,101429.19
2024-05-09T03:41:50.758Z,101428.09
2024-05-09T03:44:47.518Z,101422.69
2024-05-09T03:47:14.658Z,101427.53
2024-05-09T03:49:44.868Z,101417.91
2024-05-09T03:52:12.345Z,101417.44
2024-05-09T03:54:49.188Z,101422.38
2024-05-09T03:57:16.640Z,101415.34
2024-05-09T03:59:46.670Z,101412.88
2024-05-09T04:02:14.265Z,101415.81
2024-05-09T04:04:45.135Z,101408.38
2024-05-09T04:07:12.660Z,101409.78
2024-05-09T04:09:42.785Z,101418.72
2024-05-09T04:12:10.373Z,101418.94
2024-05-09T04:14:41.324Z,101418.38
2024-05-09T04:17:08.946Z,101425.88
2024-05-09T04:19:38.678Z,101430.09
2024-05-09T04:22:06.132Z,101437.38
2024-05-09T04:24:36.538Z,101437.59
2024-05-09T04:27:04.089Z,101429.47
2024-05-09T04:29:37.478Z,101435.03
2024-05-09T04:32:05.769Z,101435.25
2024-05-09T04:34:37.957Z,101442.84
2024-05-09T04:37:05.751Z,101440.03
2024-05-09T04:39:35.778Z,101438.88
2024-05-09T04:42:03.288Z,101432.56
2024-05-09T04:44:33.329Z,101431.63
2024-05-09T04:47:00.848Z,101434.00
2024-05-09T04:49:30.766Z,101435.66
2024-05-09T04:51:58.278Z,101434.25
2024-05-09T04:54:35.790Z,101442.88
2024-05-09T04:57:04.169Z,101435.22
2024-05-09T04:59:34.483Z,101438.53
2024-05-09T05:02:02.119Z,101441.91
2024-05-09T05:04:32.017Z,101449.47
2024-05-09T05:07:02.683Z,101451.94
2024-05-09T05:09:32.753Z,101453.78
2024-05-09T05:12:02.066Z,101455.22
2024-05-09T05:14:31.920Z,101461.34
2024-05-09T05:16:59.596Z,101458.03
2024-05-09T05:19:29.798Z,101463.44
2024-05-09T05:21:57.320Z,101451.69
2024-05-09T05:24:28.032Z,101459.69
2024-05-09T05:26:55.446Z,101455.44
2024-05-09T05:29:25.558Z,101463.94
2024-05-09T05:31:53.208Z,101462.38
2024-05-09T05:34:23.643Z,101465.09
2024-05-09T05:36:51.053Z,101460.84
2024-05-09T05:39:21.157Z,101457.44
2024-05-09T05:41:48.684Z,101459.19
2024-05-09T05:44:18.785Z,101464.56
2024-05-09T05:46:46.279Z,101461.03
2024-05-09T05:49:16.947Z,101470.03
2024-05-09T05:51:44.490Z,101468.22
2024-05-09T05:54:14.530Z,101473.69
2024-05-09T05:56:42.182Z,101474.78
2024-05-09T05:59:14.063Z,101482.25
2024-05-09T06:01:42.740Z,101471.06
2024-05-09T06:04:12.924Z,101477.63
2024-05-09T06:06:40.441Z,101471.06
2024-05-09T06:09:10.525Z,101473.25
2024-05-09T06:11:40.786Z,101467.34
2024-05-09T06:14:11.558Z,101471.09
2024-05-09T06:16:39.002Z,101470.00
2024-05-09T06:19:09.088Z,101466.56
2024-05-09T06:21:36.616Z,101466.84
2024-05-09T06:24:06.864Z,101477.13
2024-05-09T06:26:34.449Z,101469.34
2024-05-09T06:29:04.991Z,101470.88
2024-05-09T06:31:32.542Z,101468.06
2024-05-09T06:34:02.627Z,101467.03
2024-05-09T06:36:30.130Z,101459.56
2024-05-09T06:39:00.145Z,101462.75
2024-05-09T06:41:27.654Z,101455.03
2024-05-09T06:43:57.774Z,101463.88
2024-05-09T06:46:26.141Z,101466.66
2024-05-09T06:48:56.490Z,101466.69
2024-05-09T06:51:24.177Z,101465.03
2024-05-09T06:53:54.411Z,101466.66
2024-05-09T06:56:21.928Z,101459.84
2024-05-09T06:58:53.303Z,101463.09
2024-05-09T07:01:21.145Z,101456.78
2024-05-09T07:03:51.463Z,101456.50
2024-05-09T07:06:18.941Z,101462.72
2024-05-09T07:08:51.931Z,101458.31
2024-05-09T07:11:20.000Z,101464.22
2024-05-09T07:13:50.278Z,101463.59
2024-05-09T07:16:17.794Z,101459.78
2024-05-09T07:18:49.840Z,101461.84
2024-05-09T07:21:17.506Z,101461.19
2024-05-09T07:23:47.733Z,101458.38
2024-05-09T07:26:15.402Z,101461.53
2024-05-09T07:28:45.783Z,101456.72
2024-05-09T07:31:13.263Z,101451.50
2024-05-09T07:33:43.539Z,101454.19
2024-05-09T07:36:11.037Z,101458.69
2024-05-09T07:38:41.104Z,101458.81
2024-05-09T07:41:08.788Z,101461.03
2024-05-09T07:43:38.981Z,101458.47
2024-05-09T07:47:04.550Z,101457.22
2024-05-09T07:50:34.742Z,101452.94
2024-05-09T07:54:17.348Z,101439.78
2024-05-09T07:56:45.303Z,101441.41
2024-05-09T07:59:15.429Z,101445.31
2024-05-09T08:01:42.907Z,101436.06
2024-05-09T08:04:13.141Z,101442.97
2024-05-09T08:06:43.302Z,101440.53
2024-05-09T08:09:16.668Z,101432.19
2024-05-09T08:11:49.418Z,101434.75
2024-05-09T08:14:16.902Z,101425.91
2024-05-09T08:16:46.945Z,101431.22
2024-05-09T08:19:14.461Z,101436.44
2024-05-09T08:21:44.634Z,101428.72
2024-05-09T08:24:12.244Z,101430.47
2024-05-09T08:26:42.279Z,101433.00
2024-05-09T08:29:10.550Z,101431.75
2024-05-09T08:31:41.115Z,101427.81
2024-05-09T08:34:08.796Z,101428.84
2024-05-09T08:36:40.812Z,101426.47
2024-05-09T08:39:08.404Z,101427.63
2024-05-09T08:41:44.655Z,101425.56
2024-05-09T08:44:12.079Z,101427.97
2024-05-09T08:46:42.194Z,101418.47
2024-05-09T08:49:10.046Z,101420.16
2024-05-09T08:51:40.235Z,101421.34
2024-05-09T08:54:07.821Z,101418.09
2024-05-09T08:56:38.338Z,101425.22
2024-05-09T08:59:09.088Z,101423.06
2024-05-09T09:01:40.911Z,101422.38
2024-05-09T09:04:09.364Z,101419.38
2024-05-09T09:06:40.696Z,101422.84
2024-05-09T09:09:10.016Z,101416.81
2024-05-09T09:11:40.106Z,101416.09
2024-05-09T09:14:07.591Z,101415.94
2024-05-09T09:16:38.394Z,101422.66
2024-05-09T09:19:06.199Z,101422.06
2024-05-09T09:21:36.249Z,101419.38
2024-05-09T09:24:03.776Z,101415.75
2024-05-09T09:26:34.291Z,101417.72
2024-05-09T09:29:01.934Z,101413.28
2024-05-09T09:31:33.555Z,101422.91
2024-05-09T09:34:09.280Z,101415.22
2024-05-09T09:36:39.996Z,101411.13
2024-05-09T09:39:09.711Z,101412.91
2024-05-09T09:41:40.842Z,101411.50
2024-05-09T09:44:09.684Z,101408.09
2024-05-09T09:46:40.194Z,101406.47
2024-05-09T09:49:08.041Z,101411.31
2024-05-09T09:51:43.622Z,101412.00
2024-05-09T09:54:12.440Z,101409.22
2024-05-09T09:56:42.501Z,101407.66
2024-05-09T09:59:14.357Z,101406.13
2024-05-09T10:01:46.856Z,101412.81
2024-05-09T10:04:17.036Z,101398.31
2024-05-09T10:07:00.296Z,101400.28
2024-05-09T10:09:28.105Z,101404.38
2024-05-09T10:12:00.369Z,101401.31
2024-05-09T10:14:30.980Z,101399.66
2024-05-09T10:17:08.158Z,101398.31
2024-05-09T10:19:35.692Z,101401.22
2024-05-09T10:22:08.909Z,101402.00
2024-05-09T10:24:46.718Z,101393.91
2024-05-09T10:27:16.782Z,101396.22
2024-05-09T10:30:00.888Z,101397.88
2024-05-09T10:32:32.747Z,101398.50
2024-05-09T10:35:02.704Z,101404.03
2024-05-09T10:37:34.791Z,101398.00
2024-05-09T10:40:05.492Z,101384.59
2024-05-09T10:42:37.509Z,101385.34
2024-05-09T10:45:05.207Z,101388.50
2024-05-09T10:47:35.275Z,101387.44
2024-05-09T10:50:04.937Z,101390.59
2024-05-09T10:52:38.140Z,101386.38
2024-05-09T10:55:06.300Z,101383.34
2024-05-09T10:57:43.393Z,101387.72
2024-05-09T11:00:18.976Z,101380.06
2024-05-09T11:02:53.576Z,101385.53
2024-05-09T11:05:21.627Z,101375.06
2024-05-09T11:07:51.864Z,101377.81
2024-05-09T11:10:27.306Z,101370.16
2024-05-09T11:13:02.166Z,101370.38
2024-05-09T11:15:42.694Z,101369.28
2024-05-09T11:18:25.878Z,101359.31
2024-05-09T11:20:55.684Z,101362.06
2024-05-09T11:23:30.700Z,101365.00
2024-05-09T11:25:58.986Z,101354.97
2024-05-09T11:28:30.886Z,101358.31
2024-05-09T11:31:09.757Z,101355.13
2024-05-09T11:33:48.243Z,101359.19
2024-05-09T11:36:16.288Z,101354.53
2024-05-09T11:38:46.314Z,101358.38
2024-05-09T11:41:19.601Z,101351.84
2024-05-09T11:43:49.722Z,101344.91
2024-05-09T11:46:17.399Z,101340.41
2024-05-09T11:48:47.727Z,101338.69
2024-05-09T11:51:15.292Z,101337.59
2024-05-09T11:53:45.286Z,101330.13
2024-05-09T11:56:15.407Z,101340.75
2024-05-09T11:58:45.416Z,101335.81
2024-05-09T12:01:12.956Z,101335.16
2024-05-09T12:03:43.249Z,101330.13
2024-05-09T12:06:10.816Z,101331.72
2024-05-09T12:08:41.181Z,101320.88
2024-05-09T12:11:08.881Z,101322.13
2024-05-09T12:13:38.995Z,101317.56
2024-05-09T12:16:06.645Z,101312.66
2024-05-09T12:18:36.856Z,101307.72
2024-05-09T12:21:04.691Z,101310.34
2024-05-09T12:23:34.743Z,101300.94
2024-05-09T12:26:03.051Z,101302.81
2024-05-09T12:28:33.247Z,101309.84
2024-05-09T12:31:00.785Z,101310.41
2024-05-09T12:33:30.971Z,101303.56
2024-05-09T12:35:58.591Z,101296.47
2024-05-09T12:38:28.803Z,101295.75
2024-05-09T12:40:56.503Z,101298.25
2024-05-09T12:43:26.713Z,101301.44
2024-05-09T12:45:54.305Z,101291.84
2024-05-09T12:48:24.555Z,101289.22
2024-05-09T12:50:52.127Z,101290.84
2024-05-09T12:53:22.199Z,101284.66
2024-05-09T12:55:56.704Z,101280.44
2024-05-09T12:58:30.500Z,101279.09
2024-05-09T13:00:58.104Z,101272.53
2024-05-09T13:03:28.357Z,101277.16
2024-05-09T13:05:55.639Z,101269.19
2024-05-09T13:08:25.713Z,101264.72
2024-05-09T13:10:53.365Z,101276.41
2024-05-09T13:13:23.445Z,101260.56
2024-05-09T13:15:51.014Z,101258.63
2024-05-09T13:18:21.270Z,101262.63
2024-05-09T13:20:48.717Z,101255.59
2024-05-09T13:23:18.832Z,101247.94
2024-05-09T13:25:46.396Z,101251.81
2024-05-09T13:28:16.959Z,101249.59
2024-05-09T13:30:44.535Z,101247.94
2024-05-09T13:33:15.563Z,101246.56
2024-05-09T13:35:47.390Z,101257.50
2024-05-09T13:38:21.957Z,101245.72
2024-05-09T13:40:50.541Z,101246.00
2024-05-09T13:43:22.044Z,101238.59
2024-05-09T13:45:50.052Z,101236.41
2024-05-09T13:48:20.479Z,101235.31
2024-05-09T13:50:48.092Z,101239.19
2024-05-09T13:53:18.127Z,101228.91
2024-05-09T13:55:45.539Z,101221.81
2024-05-09T13:58:15.766Z,101211.97
2024-05-09T14:00:47.964Z,101213.59
2024-05-09T14:03:20.784Z,101221.25
2024-05-09T14:05:50.893Z,101214.41
2024-05-09T14:08:22.794Z,101216.28
2024-05-09T14:10:50.831Z,101218.22
2024-05-09T14:13:21.377Z,101208.09
2024-05-09T14:15:49.487Z,101212.41
2024-05-09T14:18:20.159Z,101196.53
2024-05-09T14:20:47.585Z,101208.63
2024-05-09T14:23:19.707Z,101201.22
2024-05-09T14:25:50.113Z,101200.47
2024-05-09T14:28:23.050Z,101193.06
2024-05-09T14:30:50.828Z,101186.25
2024-05-09T14:33:26.566Z,101186.78
2024-05-09T14:35:54.590Z,101195.88
2024-05-09T14:38:25.470Z,101183.06
2024-05-09T14:40:53.193Z,101188.81
2024-05-09T14:43:23.465Z,101186.66
2024-05-09T14:45:51.059Z,101188.88
2024-05-09T14:48:22.042Z,101180.72
2024-05-09T14:50:49.676Z,101179.56
2024-05-09T14:53:19.732Z,101172.47
2024-05-09T14:55:49.518Z,101170.81
2024-05-09T14:58:20.135Z,101166.41
2024-05-09T15:00:50.889Z,101172.91
2024-05-09T15:03:22.803Z,101171.06
2024-05-09T15:05:51.477Z,101160.88
2024-05-09T15:08:22.506Z,101169.66
2024-05-09T15:10:50.673Z,101172.47
2024-05-09T15:13:22.017Z,101168.63
2024-05-09T15:15:49.683Z,101164.75
2024-05-09T15:18:20.643Z,101162.03
2024-05-09T15:20:48.458Z,101154.41
2024-05-09T15:23:18.679Z,101156.03
2024-05-09T15:25:46.111Z,101146.94
2024-05-09T15:28:16.507Z,101151.63
2024-05-09T15:30:46.509Z,101148.41
2024-05-09T15:33:17.564Z,101140.22
2024-05-09T15:35:46.782Z,101139.38
2024-05-09T15:38:18.378Z,101140.22
2024-05-09T15:40:46.313Z,101137.19
2024-05-09T15:43:16.862Z,101135.53
2024-05-09T15:45:44.497Z,101138.56
2024-05-09T15:48:14.957Z,101137.00
2024-05-09T15:50:43.072Z,101135.31
2024-05-09T15:53:15.189Z,101137.25
2024-05-09T15:55:43.291Z,101126.91
2024-05-09T15:58:13.579Z,101127.69
2024-05-09T16:00:44.763Z,101125.25
2024-05-09T16:03:16.502Z,101119.78
2024-05-09T16:05:45.709Z,101131.53
2024-05-09T16:08:17.326Z,101121.44
2024-05-09T16:10:46.335Z,101126.84
2024-05-09T16:13:18.041Z,101121.09
2024-05-09T16:15:46.000Z,101120.53
2024-05-09T16:18:16.736Z,101118.88
2024-05-09T16:20:46.313Z,101118.06
2024-05-09T16:23:18.599Z,101126.59
2024-05-09T16:25:48.221Z,101114.50
2024-05-09T16:28:19.169Z,101125.50
2024-05-09T16:30:47.724Z,101120.28
2024-05-09T16:33:19.430Z,101115.13
2024-05-09T16:35:47.215Z,101120.59
2024-05-09T16:38:17.196Z,101119.13
2024-05-09T16:40:44.777Z,101116.69
2024-05-09T16:43:15.768Z,101117.78
2024-05-09T16:45:44.853Z,101116.09
2024-05-09T16:48:15.651Z,101121.63
2024-05-09T16:50:43.633Z,101116.72
2024-05-09T16:53:13.813Z,101123.31
2024-05-09T16:55:42.560Z,101119.19
2024-05-09T16:58:13.353Z,101117.06
2024-05-09T17:00:43.409Z,101117.91
2024-05-09T17:03:17.272Z,101109.25
2024-05-09T17:05:46.868Z,101114.41
2024-05-09T17:08:19.948Z,101115.81
2024-05-09T17:10:49.228Z,101116.41
2024-05-09T17:13:20.546Z,101110.69
2024-05-09T17:15:51.439Z,101114.75
2024-05-09T17:18:21.917Z,101110.44
2024-05-09T17:20:50.344Z,101111.59
2024-05-09T17:23:20.484Z,101103.97
2024-05-09T17:25:47.976Z,101108.09
2024-05-09T17:28:18.090Z,101110.31
2024-05-09T17:30:45.609Z,101099.13
2024-05-09T17:33:17.745Z,101106.28
2024-05-09T17:35:50.714Z,101107.41
2024-05-09T17:38:18.895Z,101110.72
2024-05-09T17:40:49.031Z,101107.16
2024-05-09T17:43:16.618Z,101108.53
2024-05-09T17:45:46.750Z,101107.19
2024-05-09T17:48:15.126Z,101106.69
2024-05-09T17:50:45.279Z,101105.34
2024-05-09T17:53:12.962Z,101104.78
2024-05-09T17:55:43.086Z,101105.94
2024-05-09T17:58:12.171Z,101107.63
2024-05-09T18:00:42.831Z,101106.53
2024-05-09T18:03:12.298Z,101107.13
2024-05-09T18:05:44.731Z,101104.41
2024-05-09T18:08:13.454Z,101108.31
2024-05-09T18:10:43.821Z,101105.56
2024-05-09T18:13:13.694Z,101109.13
2024-05-09T18:15:45.310Z,101107.53
2024-05-09T18:18:13.438Z,101105.94
2024-05-09T18:20:45.837Z,101116.34
2024-05-09T18:23:16.434Z,101106.03
2024-05-09T18:25:48.461Z,101112.88
2024-05-09T18:28:17.465Z,101108.81
2024-05-09T18:30:48.231Z,101113.78
2024-05-09T18:33:16.340Z,101109.72
2024-05-09T18:35:47.541Z,101114.38
2024-05-09T18:38:15.255Z,101118.50
2024-05-09T18:40:48.500Z,101114.41
2024-05-09T18:43:17.297Z,101108.69
2024-05-09T18:45:48.393Z,101120.72
2024-05-09T18:48:16.302Z,101126.47
2024-05-09T18:50:46.496Z,101124.25
2024-05-09T18:53:14.626Z,101131.91
2024-05-09T18:55:45.061Z,101133.28
2024-05-09T18:58:12.724Z,101144.47
2024-05-09T19:00:45.442Z,101140.09
2024-05-09T19:03:15.933Z,101140.63
2024-05-09T19:05:47.102Z,101145.81
2024-05-09T19:08:15.522Z,101148.53
2024-05-09T19:10:46.316Z,101145.53
2024-05-09T19:13:14.772Z,101148.53
2024-05-09T19:15:45.674Z,101151.22
2024-05-09T19:18:14.378Z,101158.03
2024-05-09T19:20:46.492Z,101155.56
2024-05-09T19:23:14.631Z,101156.63
2024-05-09T19:25:45.934Z,101154.41
2024-05-09T19:28:13.467Z,101160.13
2024-05-09T19:30:43.562Z,101161.72
2024-05-09T19:33:12.880Z,101155.69
2024-05-09T19:35:45.555Z,101155.94
2024-05-09T19:38:13.907Z,101161.06
2024-05-09T19:40:44.708Z,101159.16
2024-05-09T19:43:12.439Z,101159.94
2024-05-09T19:45:43.611Z,101157.47
2024-05-09T19:48:11.353Z,101158.00
2024-05-09T19:50:44.153Z,101161.25
2024-05-09T19:53:15.679Z,101163.94
2024-05-09T19:55:45.875Z,101165.56
2024-05-09T19:58:13.965Z,101174.50
2024-05-09T20:00:44.903Z,101167.13
2024-05-09T20:03:15.500Z,101174.72
2024-05-09T20:05:48.510Z,101174.69
2024-05-09T20:08:16.416Z,101174.66
2024-05-09T20:10:46.757Z,101173.53
2024-05-09T20:13:14.488Z,101176.22
2024-05-09T20:15:44.759Z,101175.69
2024-05-09T20:18:12.849Z,101176.44
2024-05-09T20:20:44.965Z,101182.16
2024-05-09T20:23:14.021Z,101182.69
2024-05-09T20:25:46.475Z,101185.09
2024-05-09T20:28:13.953Z,101182.63
2024-05-09T20:30:44.174Z,101189.41
2024-05-09T20:33:12.440Z,101182.00
2024-05-09T20:35:42.724Z,101181.47
2024-05-09T20:38:10.146Z,101178.19
2024-05-09T20:40:40.419Z,101178.13
2024-05-09T20:43:12.005Z,101173.72
2024-05-09T20:45:42.491Z,101173.44
2024-05-09T20:48:10.276Z,101171.44
2024-05-09T20:50:42.277Z,101183.91
2024-05-09T20:53:13.115Z,101176.56
2024-05-09T20:55:44.932Z,101175.13
2024-05-09T20:58:13.445Z,101172.09
2024-05-09T21:00:45.708Z,101178.28
2024-05-09T21:03:16.158Z,101175.28
2024-05-09T21:05:47.819Z,101185.22
2024-05-09T21:08:15.989Z,101175.41
2024-05-09T21:10:46.280Z,101179.72
2024-05-09T21:13:14.601Z,101171.78
2024-05-09T21:15:44.867Z,101183.44
2024-05-09T21:18:12.610Z,101177.69
2024-05-09T21:20:44.398Z,101180.09
2024-05-09T21:23:11.443Z,101177.88
2024-05-09T21:25:41.601Z,101181.94
2024-05-09T21:28:09.315Z,101178.88
2024-05-09T21:30:42.521Z,101185.63
2024-05-09T21:33:13.135Z,101185.34
2024-05-09T21:35:47.878Z,101182.38
2024-05-09T21:38:15.802Z,101188.31
2024-05-09T21:40:46.535Z,101188.31
2024-05-09T21:43:14.437Z,101188.81
2024-05-09T21:45:44.405Z,101181.44
2024-05-09T21:48:13.235Z,101190.63
2024-05-09T21:50:43.686Z,101184.06
2024-05-09T21:53:12.711Z,101195.41
2024-05-09T21:55:45.255Z,101182.34
2024-05-09T21:58:14.071Z,101191.56
2024-05-09T22:00:46.477Z,101180.16
2024-05-09T22:03:14.718Z,101181.47
2024-05-09T22:05:45.454Z,101175.22
2024-05-09T22:08:13.337Z,101183.59
2024-05-09T22:10:43.632Z,101174.09
2024-05-09T22:13:11.303Z,101173.53
2024-05-09T22:15:42.470Z,101178.38
2024-05-09T22:18:11.036Z,101176.16
2024-05-09T22:20:45.637Z,101179.38
2024-05-09T22:23:14.885Z,101183.97
2024-05-09T22:25:45.166Z,101183.63
2024-05-09T22:28:15.633Z,101178.72
2024-05-09T22:30:46.986Z,101188.19
2024-05-09T22:33:15.666Z,101183.53
2024-05-09T22:35:47.625Z,101179.41
2024-05-09T22:38:15.169Z,101177.44
2024-05-09T22:40:48.730Z,101177.44
2024-05-09T22:43:23.483Z,101178.38
2024-05-09T22:45:58.263Z,101178.91
2024-05-09T22:48:26.485Z,101177.50
2024-05-09T22:50:57.032Z,101175.53
2024-05-09T22:53:25.829Z,101179.31
2024-05-09T22:55:56.355Z,101178.72
2024-05-09T22:58:24.412Z,101175.47
2024-05-09T23:00:54.675Z,101173.22
2024-05-09T23:03:23.009Z,101179.41
2024-05-09T23:05:53.295Z,101178.81
2024-05-09T23:08:20.948Z,101172.50
2024-05-09T23:10:51.199Z,101172.50
2024-05-09T23:13:18.898Z,101167.59
2024-05-09T23:15:49.132Z,101176.78
2024-05-09T23:18:16.807Z,101172.16
2024-05-09T23:20:46.944Z,101171.34
2024-05-09T23:23:14.672Z,101171.84
2024-05-09T23:25:44.545Z,101162.34
2024-05-09T23:28:13.019Z,101176.34
2024-05-09T23:30:43.141Z,101166.25
2024-05-09T23:33:12.964Z,101159.44
2024-05-09T23:35:46.879Z,101163.81
2024-05-09T23:38:14.536Z,101158.59
2024-05-09T23:40:44.661Z,101156.41
2024-05-09T23:43:12.840Z,101153.09
2024-05-09T23:45:44.929Z,101154.75
2024-05-09T23:48:12.934Z,101157.38
2024-05-09T23:50:43.079Z,101147.03
2024-05-09T23:53:11.204Z,101158.38
2024-05-09T23:55:42.013Z,101160.13
2024-05-09T23:58:12.272Z,101156.28
